Time;durP1;ratioP1;P1;durP2;ratioP2;P2;SDS_P1;SDS_P2;PMS_P1;PMS_P2;Temp;Humidity;BMP_temperature;BMP_pressure;BME280_temperature;BME280_humidity;BME280_pressure;Samples;Min_cycle;Max_cycle;Signal;HPM_P1;HPM_P2
2020/12/29 00:00:43;;;;;;;28.23;18.03;;;4.70;99.90;;;;;;5105926;28;20220;-79
2020/12/29 00:03:08;;;;;;;33.80;18.53;;;4.70;99.90;;;;;;5088971;28;20229;-78
2020/12/29 00:05:37;;;;;;;32.43;18.27;;;4.80;99.90;;;;;;5060098;28;20316;-78
2020/12/29 00:08:02;;;;;;;31.50;18.10;;;4.90;99.90;;;;;;5089091;28;20213;-78
2020/12/29 00:10:28;;;;;;;29.77;17.37;;;5.00;99.90;;;;;;5110490;28;20310;-77
2020/12/29 00:12:54;;;;;;;28.70;17.23;;;5.10;99.90;;;;;;5073132;28;20215;-78
2020/12/29 00:15:19;;;;;;;28.13;17.33;;;4.90;99.90;;;;;;5089657;28;20189;-78
2020/12/29 00:17:45;;;;;;;27.30;16.67;;;4.90;99.90;;;;;;5091801;28;20192;-77
2020/12/29 00:20:11;;;;;;;29.67;17.83;;;4.90;99.90;;;;;;5072894;28;20209;-77
2020/12/29 00:22:37;;;;;;;29.77;17.30;;;4.90;99.90;;;;;;5092000;28;20187;-77
2020/12/29 00:25:03;;;;;;;29.97;16.87;;;5.10;99.90;;;;;;5072490;28;20202;-77
2020/12/29 00:27:29;;;;;;;27.80;16.93;;;5.20;99.90;;;;;;5088800;28;20627;-79
2020/12/29 00:29:55;;;;;;;33.17;17.83;;;5.30;99.90;;;;;;5115199;27;20224;-77
2020/12/29 00:32:20;;;;;;;35.33;18.70;;;5.30;99.90;;;;;;5071546;28;20670;-77
2020/12/29 00:34:47;;;;;;;29.27;17.47;;;5.20;99.90;;;;;;5078642;28;20646;-77
2020/12/29 00:37:13;;;;;;;31.40;17.37;;;5.10;99.90;;;;;;5076123;28;20180;-78
2020/12/29 00:39:39;;;;;;;31.93;16.83;;;4.90;99.90;;;;;;5097872;28;20211;-78
2020/12/29 00:42:05;;;;;;;27.60;16.70;;;4.70;99.90;;;;;;5097264;28;20326;-77
2020/12/29 00:44:31;;;;;;;30.07;17.53;;;4.70;99.90;;;;;;5087804;28;20273;-77
2020/12/29 00:46:57;;;;;;;31.67;17.63;;;4.80;99.90;;;;;;5095287;28;20260;-77
2020/12/29 00:49:24;;;;;;;27.93;16.23;;;4.90;99.90;;;;;;5076842;28;20174;-77
2020/12/29 00:51:52;;;;;;;29.27;17.57;;;4.90;99.90;;;;;;5077361;28;20235;-78
2020/12/29 00:54:21;;;;;;;30.83;17.33;;;5.00;99.90;;;;;;5092544;28;20552;-77
2020/12/29 00:56:50;;;;;;;29.47;17.10;;;5.00;99.90;;;;;;5076694;28;20190;-78
2020/12/29 00:59:16;;;;;;;25.73;15.43;;;4.90;99.90;;;;;;5093953;28;20199;-77
2020/12/29 01:01:43;;;;;;;30.83;16.17;;;4.90;99.90;;;;;;5107358;27;20178;-77
2020/12/29 01:04:34;;;;;;;29.10;15.90;;;4.90;99.90;;;;;;5071326;28;20318;-78
2020/12/29 01:07:04;;;;;;;25.47;15.60;;;4.90;99.90;;;;;;5075482;28;20568;-77
2020/12/29 01:09:31;;;;;;;27.67;15.67;;;4.80;99.90;;;;;;5074954;28;20187;-77
2020/12/29 01:11:58;;;;;;;25.77;14.30;;;4.80;99.90;;;;;;5078467;28;20536;-78
2020/12/29 01:14:26;;;;;;;24.10;14.17;;;4.70;99.90;;;;;;5090269;28;20202;-78
2020/12/29 01:17:05;;;;;;;26.00;13.70;;;4.70;99.90;;;;;;5110274;27;21020;-77
2020/12/29 01:19:31;;;;;;;24.00;13.30;;;4.70;99.90;;;;;;5079760;28;20207;-78
2020/12/29 01:21:56;;;;;;;22.27;12.37;;;4.80;99.90;;;;;;5093811;28;20190;-78
2020/12/29 01:24:22;;;;;;;23.50;12.40;;;4.90;99.90;;;;;;5076140;28;20259;-77
2020/12/29 01:26:48;;;;;;;20.43;11.63;;;4.90;99.90;;;;;;5090845;28;20184;-78
2020/12/29 01:29:13;;;;;;;24.57;11.37;;;4.80;99.90;;;;;;5092487;28;20345;-78
2020/12/29 01:31:39;;;;;;;19.43;11.40;;;4.70;99.90;;;;;;5108992;28;20226;-77
2020/12/29 01:34:05;;;;;;;22.63;12.20;;;4.80;99.90;;;;;;5077314;28;20235;-78
2020/12/29 01:36:30;;;;;;;20.77;11.67;;;4.90;99.90;;;;;;5093959;28;20187;-78
2020/12/29 01:38:56;;;;;;;20.67;11.50;;;4.70;99.90;;;;;;5075351;28;20216;-78
2020/12/29 01:41:23;;;;;;;22.30;10.93;;;4.70;99.90;;;;;;5091491;28;20214;-77
2020/12/29 01:43:49;;;;;;;25.80;12.67;;;4.70;99.90;;;;;;5093240;28;20170;-78
2020/12/29 01:46:15;;;;;;;22.27;12.03;;;4.50;99.90;;;;;;5093216;28;20232;-77
2020/12/29 01:48:41;;;;;;;24.20;13.37;;;4.50;99.90;;;;;;5074865;28;20604;-77
2020/12/29 01:51:08;;;;;;;25.30;14.07;;;4.40;99.90;;;;;;5095055;28;20216;-78
2020/12/29 01:53:34;;;;;;;29.23;14.23;;;4.30;99.90;;;;;;5093069;28;20253;-78
2020/12/29 01:56:07;;;;;;;26.03;14.13;;;4.10;99.90;;;;;;5093036;28;20183;-78
2020/12/29 01:58:36;;;;;;;26.13;14.30;;;4.10;99.90;;;;;;5076238;28;20646;-78
2020/12/29 02:01:01;;;;;;;29.23;15.30;;;4.10;99.90;;;;;;5091705;28;20205;-77
2020/12/29 02:03:27;;;;;;;27.00;13.20;;;4.20;99.90;;;;;;5075403;28;20547;-78
2020/12/29 02:05:53;;;;;;;22.03;12.73;;;4.30;99.90;;;;;;5078883;28;20186;-78
2020/12/29 02:08:19;;;;;;;29.07;14.23;;;4.40;99.90;;;;;;5093943;28;20213;-78
2020/12/29 02:10:45;;;;;;;25.37;14.23;;;4.40;99.90;;;;;;5094505;28;20277;-78
2020/12/29 02:13:11;;;;;;;28.97;13.93;;;4.50;99.90;;;;;;5061415;28;20286;-78
2020/12/29 02:15:36;;;;;;;22.80;12.80;;;4.60;99.90;;;;;;5089569;28;20309;-78
2020/12/29 02:18:03;;;;;;;23.80;13.63;;;4.70;99.90;;;;;;5092823;28;20191;-78
2020/12/29 02:20:29;;;;;;;24.33;13.20;;;4.70;99.90;;;;;;5074894;28;20206;-78
2020/12/29 02:22:54;;;;;;;22.73;13.40;;;4.80;99.90;;;;;;5105775;27;20193;-78
2020/12/29 02:25:20;;;;;;;24.83;12.93;;;4.80;99.90;;;;;;5093626;28;20190;-78
2020/12/29 02:27:48;;;;;;;24.30;13.00;;;4.80;99.90;;;;;;5110133;27;20176;-78
2020/12/29 02:30:15;;;;;;;21.93;12.67;;;4.90;99.90;;;;;;5087380;28;20228;-78
2020/12/29 02:32:41;;;;;;;26.60;14.00;;;5.00;99.90;;;;;;5092836;28;20185;-78
2020/12/29 02:35:09;;;;;;;25.37;12.90;;;5.10;99.90;;;;;;5072556;28;20678;-78
2020/12/29 02:37:34;;;;;;;23.70;12.87;;;5.20;99.90;;;;;;5074110;28;20185;-78
2020/12/29 02:40:00;;;;;;;22.30;12.97;;;5.20;99.90;;;;;;5092404;28;20207;-78
2020/12/29 02:42:26;;;;;;;21.07;12.53;;;5.20;99.90;;;;;;5091992;28;20178;-78
2020/12/29 02:44:52;;;;;;;22.63;13.03;;;5.20;99.90;;;;;;5073363;28;20536;-78
2020/12/29 02:47:17;;;;;;;21.70;12.50;;;5.10;99.90;;;;;;5075524;28;20190;-78
2020/12/29 02:49:43;;;;;;;22.50;12.63;;;5.10;99.90;;;;;;5090703;28;20188;-78
2020/12/29 02:52:09;;;;;;;19.60;12.17;;;5.20;99.90;;;;;;5110237;28;20185;-78
2020/12/29 02:54:35;;;;;;;20.63;12.87;;;5.20;99.90;;;;;;5078788;28;20194;-77
2020/12/29 02:57:01;;;;;;;20.23;12.57;;;5.20;99.90;;;;;;5090915;28;20185;-78
2020/12/29 02:59:27;;;;;;;21.70;13.37;;;5.30;99.90;;;;;;5105317;27;20252;-77
2020/12/29 03:01:53;;;;;;;25.43;13.50;;;5.20;99.90;;;;;;5077569;28;20540;-77
2020/12/29 03:04:19;;;;;;;26.27;14.10;;;5.30;99.90;;;;;;5090117;28;20209;-78
2020/12/29 03:06:46;;;;;;;19.90;13.30;;;5.30;99.90;;;;;;5090306;28;20174;-78
2020/12/29 03:09:12;;;;;;;22.83;13.57;;;5.30;99.90;;;;;;5074518;28;20202;-78
2020/12/29 03:11:38;;;;;;;22.60;13.83;;;5.30;99.90;;;;;;5077517;28;20229;-78
2020/12/29 03:14:06;;;;;;;25.57;14.27;;;5.30;99.90;;;;;;5075192;28;20620;-78
2020/12/29 03:16:32;;;;;;;23.43;13.47;;;5.30;99.90;;;;;;5107145;28;20253;-78
2020/12/29 03:18:58;;;;;;;21.70;12.63;;;5.30;99.90;;;;;;5075405;28;20180;-78
2020/12/29 03:21:24;;;;;;;24.83;14.67;;;5.30;99.90;;;;;;5107831;28;20228;-77
2020/12/29 03:23:50;;;;;;;24.93;13.97;;;5.20;99.90;;;;;;5090983;28;20194;-78
2020/12/29 03:26:17;;;;;;;22.17;14.10;;;5.20;99.90;;;;;;5089967;28;20186;-77
2020/12/29 03:28:42;;;;;;;24.50;14.73;;;5.20;99.90;;;;;;5073413;28;20863;-78
2020/12/29 03:31:08;;;;;;;21.47;13.70;;;5.10;99.90;;;;;;5073842;28;20297;-77
2020/12/29 03:33:34;;;;;;;22.47;13.93;;;5.10;99.90;;;;;;5071910;28;20538;-78
2020/12/29 03:36:00;;;;;;;22.37;13.77;;;5.10;99.90;;;;;;5076108;28;20222;-78
2020/12/29 03:38:26;;;;;;;21.50;13.43;;;5.00;99.90;;;;;;5091307;28;20263;-77
2020/12/29 03:40:52;;;;;;;24.37;14.17;;;4.90;99.90;;;;;;5091680;28;20227;-78
2020/12/29 03:43:18;;;;;;;25.53;14.77;;;4.90;99.90;;;;;;5090159;28;20176;-77
2020/12/29 03:45:45;;;;;;;21.70;14.60;;;4.80;99.90;;;;;;5073074;28;20282;-77
2020/12/29 03:48:15;;;;;;;24.43;14.90;;;4.90;99.90;;;;;;5072690;28;20660;-78
2020/12/29 03:50:41;;;;;;;25.30;14.23;;;4.80;99.90;;;;;;5110452;28;20184;-77
2020/12/29 03:53:08;;;;;;;26.60;13.63;;;4.80;99.90;;;;;;5093199;28;20197;-78
2020/12/29 03:55:35;;;;;;;25.43;14.93;;;4.80;99.90;;;;;;5059333;28;20184;-78
2020/12/29 03:58:01;;;;;;;24.17;14.20;;;4.70;99.90;;;;;;5107689;28;20261;-78
2020/12/29 04:00:27;;;;;;;25.47;14.40;;;4.70;99.90;;;;;;5090176;28;20578;-78
2020/12/29 04:02:52;;;;;;;24.97;14.37;;;4.60;99.90;;;;;;5078670;28;20184;-77
2020/12/29 04:05:18;;;;;;;25.87;13.63;;;4.70;99.90;;;;;;5094891;28;20667;-78
2020/12/29 04:07:45;;;;;;;25.17;13.43;;;4.60;99.90;;;;;;5095114;28;20606;-78
2020/12/29 04:10:11;;;;;;;25.33;13.73;;;4.60;99.90;;;;;;5094752;28;20182;-77
2020/12/29 04:12:38;;;;;;;27.03;14.10;;;4.50;99.90;;;;;;5079349;28;20292;-78
2020/12/29 04:15:04;;;;;;;24.60;13.57;;;4.50;99.90;;;;;;5097043;28;20194;-77
2020/12/29 04:17:38;;;;;;;27.43;14.43;;;4.50;99.90;;;;;;5076944;28;20191;-78
2020/12/29 04:20:05;;;;;;;22.67;14.10;;;4.60;99.90;;;;;;5091779;28;20295;-77
2020/12/29 04:22:35;;;;;;;28.27;14.10;;;4.50;99.90;;;;;;5097370;28;20211;-78
2020/12/29 04:25:03;;;;;;;24.30;13.80;;;4.60;99.90;;;;;;5096614;28;20188;-77
2020/12/29 04:27:29;;;;;;;25.80;13.60;;;4.70;99.90;;;;;;5061204;28;20186;-77
2020/12/29 04:29:55;;;;;;;23.90;13.37;;;4.70;99.90;;;;;;5098616;28;20627;-78
2020/12/29 04:32:21;;;;;;;25.87;13.53;;;4.80;99.90;;;;;;5080670;28;20179;-77
2020/12/29 04:34:47;;;;;;;26.00;12.90;;;4.90;99.90;;;;;;5073787;28;20177;-78
2020/12/29 04:37:14;;;;;;;23.90;13.03;;;4.90;99.90;;;;;;5076635;28;20176;-77
2020/12/29 04:39:39;;;;;;;21.87;12.57;;;5.00;99.90;;;;;;5094125;28;20373;-77
2020/12/29 04:42:10;;;;;;;27.70;13.50;;;5.00;99.90;;;;;;5082535;28;20706;-77
2020/12/29 04:44:37;;;;;;;22.20;12.47;;;5.00;99.90;;;;;;5089955;28;20192;-77
2020/12/29 04:47:04;;;;;;;24.77;12.30;;;5.10;99.90;;;;;;5077613;28;20828;-77
2020/12/29 04:49:31;;;;;;;20.17;11.27;;;5.30;99.90;;;;;;5077293;28;20264;-77
2020/12/29 04:51:57;;;;;;;23.67;11.53;;;5.30;99.90;;;;;;5094594;28;21802;-77
2020/12/29 04:54:26;;;;;;;21.67;12.07;;;5.30;99.90;;;;;;5095089;28;20221;-77
2020/12/29 04:56:56;;;;;;;24.83;12.37;;;5.30;99.90;;;;;;5110891;27;20186;-78
2020/12/29 04:59:22;;;;;;;25.33;12.10;;;5.40;99.90;;;;;;5077625;28;20202;-77
2020/12/29 05:01:48;;;;;;;24.43;12.17;;;5.40;99.90;;;;;;5096714;28;20178;-78
2020/12/29 05:04:16;;;;;;;24.03;11.80;;;5.50;99.90;;;;;;5079404;28;20193;-77
2020/12/29 05:06:42;;;;;;;28.53;12.97;;;5.50;99.90;;;;;;5094176;28;20171;-77
2020/12/29 05:09:07;;;;;;;23.97;13.03;;;5.50;99.90;;;;;;5090584;28;20677;-78
2020/12/29 05:11:34;;;;;;;23.60;12.20;;;5.60;99.90;;;;;;5093410;28;20584;-78
2020/12/29 05:14:02;;;;;;;26.97;13.30;;;5.60;99.90;;;;;;5069349;28;20600;-78
2020/12/29 05:16:28;;;;;;;23.93;12.07;;;5.60;99.90;;;;;;5078748;28;20180;-78
2020/12/29 05:18:55;;;;;;;28.57;12.73;;;5.70;99.90;;;;;;5094447;28;20191;-78
2020/12/29 05:21:26;;;;;;;24.93;12.03;;;5.70;99.90;;;;;;5076856;28;20207;-78
2020/12/29 05:23:53;;;;;;;28.33;13.13;;;5.60;99.90;;;;;;5094292;28;20170;-78
2020/12/29 05:26:19;;;;;;;26.53;13.60;;;5.70;99.90;;;;;;5095090;28;20674;-78
2020/12/29 05:28:46;;;;;;;27.90;13.37;;;5.70;99.90;;;;;;5062415;28;20184;-78
2020/12/29 05:31:12;;;;;;;28.10;14.13;;;5.70;99.90;;;;;;5058973;28;20193;-78
2020/12/29 05:33:39;;;;;;;27.90;14.30;;;5.80;99.90;;;;;;5090483;28;20196;-77
2020/12/29 05:36:05;;;;;;;27.63;14.47;;;5.70;99.90;;;;;;5077309;28;20175;-79
2020/12/29 05:38:31;;;;;;;26.80;14.90;;;5.60;99.90;;;;;;5094166;28;20559;-78
2020/12/29 05:40:57;;;;;;;28.00;15.63;;;5.60;99.90;;;;;;5093705;28;20206;-78
2020/12/29 05:43:35;;;;;;;31.23;17.20;;;5.60;99.90;;;;;;5091826;28;20178;-77
2020/12/29 05:46:06;;;;;;;30.67;17.27;;;5.60;99.90;;;;;;5090878;28;20193;-78
2020/12/29 05:48:32;;;;;;;34.47;18.70;;;5.60;99.90;;;;;;5094070;28;20190;-78
2020/12/29 05:51:01;;;;;;;38.73;18.83;;;5.60;99.90;;;;;;5095262;28;20194;-77
2020/12/29 05:53:28;;;;;;;37.97;19.53;;;5.70;99.90;;;;;;5109555;27;20274;-78
2020/12/29 05:55:57;;;;;;;36.23;21.10;;;5.70;99.90;;;;;;5072429;28;20177;-77
2020/12/29 05:58:23;;;;;;;33.70;20.60;;;5.70;99.90;;;;;;5079203;28;20199;-78
2020/12/29 06:00:49;;;;;;;38.00;21.57;;;5.70;99.90;;;;;;5108380;27;20199;-78
2020/12/29 06:03:16;;;;;;;38.30;23.07;;;5.70;99.90;;;;;;5094575;28;20544;-77
2020/12/29 06:05:47;;;;;;;43.63;23.77;;;5.70;99.90;;;;;;5108748;27;20185;-78
2020/12/29 06:08:16;;;;;;;43.50;24.13;;;5.60;99.90;;;;;;5093379;28;20229;-77
2020/12/29 06:10:46;;;;;;;44.60;24.03;;;5.70;99.90;;;;;;5089084;28;20197;-78
2020/12/29 06:13:16;;;;;;;46.10;25.80;;;5.60;99.90;;;;;;5074622;28;20792;-78
2020/12/29 06:15:50;;;;;;;44.33;26.33;;;5.60;99.90;;;;;;5094993;28;20196;-78
2020/12/29 06:18:31;;;;;;;49.50;27.03;;;5.60;99.90;;;;;;5112069;27;20691;-77
2020/12/29 06:21:02;;;;;;;49.87;27.03;;;5.60;99.90;;;;;;5073651;28;20198;-77
2020/12/29 06:23:29;;;;;;;51.57;27.03;;;5.60;99.90;;;;;;5107442;27;20589;-78
2020/12/29 06:26:00;;;;;;;56.30;28.63;;;5.60;99.90;;;;;;5092883;28;20234;-77
2020/12/29 06:28:31;;;;;;;58.93;27.37;;;5.60;99.90;;;;;;5075552;28;20532;-78
2020/12/29 06:30:56;;;;;;;54.03;27.70;;;5.70;99.90;;;;;;5090675;28;20729;-78
2020/12/29 06:33:23;;;;;;;52.77;28.63;;;5.70;99.90;;;;;;5091849;28;20175;-78
2020/12/29 06:35:53;;;;;;;53.97;28.07;;;5.70;99.90;;;;;;5091091;28;20687;-78
2020/12/29 06:38:28;;;;;;;54.83;28.50;;;5.70;99.90;;;;;;5092801;28;20901;-78
2020/12/29 06:40:55;;;;;;;53.27;27.90;;;5.60;99.90;;;;;;5071803;28;20238;-78
2020/12/29 06:43:21;;;;;;;53.53;27.57;;;5.70;99.90;;;;;;5089419;28;20196;-78
2020/12/29 06:45:47;;;;;;;47.67;25.70;;;5.70;99.90;;;;;;5092798;28;20270;-77
2020/12/29 06:48:20;;;;;;;47.23;25.77;;;5.60;99.90;;;;;;5076141;28;20180;-78
2020/12/29 06:50:47;;;;;;;50.50;25.23;;;5.50;99.90;;;;;;5075466;28;20188;-78
2020/12/29 06:53:20;;;;;;;48.73;24.23;;;5.50;99.90;;;;;;5089473;28;20189;-78
2020/12/29 06:55:47;;;;;;;56.83;25.87;;;5.40;99.90;;;;;;5092134;28;20179;-78
2020/12/29 06:58:33;;;;;;;48.40;25.20;;;5.40;99.90;;;;;;5107798;27;20177;-78
2020/12/29 07:01:22;;;;;;;50.30;25.17;;;5.40;99.90;;;;;;5091880;28;20290;-78
2020/12/29 07:04:02;;;;;;;52.17;24.53;;;5.50;99.90;;;;;;5075068;28;20627;-78
2020/12/29 07:06:33;;;;;;;55.23;25.20;;;5.50;99.90;;;;;;5086479;28;20188;-78
2020/12/29 07:09:23;;;;;;;52.10;24.60;;;5.50;99.90;;;;;;5075683;28;20181;-78
2020/12/29 07:12:07;;;;;;;47.60;22.57;;;5.50;99.90;;;;;;5090721;28;20278;-78
2020/12/29 07:14:34;;;;;;;48.60;22.10;;;5.50;99.90;;;;;;5089925;28;20715;-77
2020/12/29 07:17:00;;;;;;;47.47;24.07;;;5.60;99.90;;;;;;5077970;28;20789;-77
2020/12/29 07:19:28;;;;;;;49.33;24.40;;;5.70;99.90;;;;;;5076115;28;20292;-78
2020/12/29 07:21:53;;;;;;;48.23;23.80;;;5.80;99.90;;;;;;5094151;28;20182;-78
2020/12/29 07:24:19;;;;;;;49.60;24.63;;;5.70;99.90;;;;;;5070770;28;20222;-78
2020/12/29 07:26:45;;;;;;;46.27;23.50;;;5.70;99.90;;;;;;5090994;28;20184;-79
2020/12/29 07:29:11;;;;;;;46.03;23.50;;;5.70;99.90;;;;;;5090324;28;20302;-79
2020/12/29 07:31:40;;;;;;;42.87;22.40;;;5.70;99.90;;;;;;5106437;28;20254;-79
2020/12/29 07:34:11;;;;;;;47.73;24.17;;;5.80;99.90;;;;;;5073783;28;20226;-79
2020/12/29 07:36:45;;;;;;;42.13;22.43;;;5.80;99.90;;;;;;5091164;28;20190;-79
2020/12/29 07:39:17;;;;;;;41.60;22.50;;;5.70;99.90;;;;;;5095064;28;20184;-78
2020/12/29 07:41:44;;;;;;;43.40;21.50;;;5.70;99.90;;;;;;5074844;28;20185;-78
2020/12/29 07:44:10;;;;;;;46.57;21.70;;;5.70;99.90;;;;;;5094766;28;20192;-78
2020/12/29 07:46:36;;;;;;;41.63;21.60;;;5.70;99.90;;;;;;5076613;28;20199;-77
2020/12/29 07:49:03;;;;;;;41.40;21.87;;;5.70;99.90;;;;;;5078454;28;20313;-77
2020/12/29 07:51:29;;;;;;;44.27;22.27;;;5.70;99.90;;;;;;5094855;28;20848;-78
2020/12/29 07:54:03;;;;;;;43.07;21.00;;;5.60;99.90;;;;;;5095557;28;20192;-78
2020/12/29 07:56:29;;;;;;;41.47;20.57;;;5.50;99.90;;;;;;5093642;28;20241;-78
2020/12/29 07:59:09;;;;;;;44.37;21.97;;;5.40;99.90;;;;;;5095098;28;20657;-78
2020/12/29 08:01:48;;;;;;;43.83;20.33;;;5.40;99.90;;;;;;5090678;28;20295;-77
2020/12/29 08:04:31;;;;;;;42.10;20.47;;;5.40;99.90;;;;;;5114367;27;20170;-78
2020/12/29 08:06:58;;;;;;;43.03;19.57;;;5.40;99.90;;;;;;5078591;28;20199;-77
2020/12/29 08:09:24;;;;;;;44.83;19.63;;;5.30;99.90;;;;;;5079193;28;20189;-78
2020/12/29 08:11:51;;;;;;;46.67;21.13;;;5.40;99.90;;;;;;5096803;28;20174;-78
2020/12/29 08:14:16;;;;;;;44.53;19.93;;;5.30;99.90;;;;;;5075898;28;20197;-77
2020/12/29 08:16:42;;;;;;;43.70;20.43;;;5.20;99.90;;;;;;5113979;27;20193;-78
2020/12/29 08:19:11;;;;;;;40.83;18.90;;;5.20;99.90;;;;;;5077919;28;20530;-77
2020/12/29 08:21:38;;;;;;;42.60;19.53;;;5.10;99.90;;;;;;5114255;27;20230;-78
2020/12/29 08:24:05;;;;;;;36.97;18.50;;;5.00;99.90;;;;;;5095581;28;20195;-77
2020/12/29 08:26:32;;;;;;;42.07;19.17;;;5.00;99.90;;;;;;5075787;28;20263;-78
2020/12/29 08:28:58;;;;;;;37.90;17.93;;;5.10;99.90;;;;;;5094277;28;20177;-78
2020/12/29 08:31:27;;;;;;;39.17;18.53;;;5.20;99.90;;;;;;5091341;28;20229;-78
2020/12/29 08:33:57;;;;;;;37.80;17.63;;;5.40;99.90;;;;;;5095028;28;20978;-78
2020/12/29 08:36:24;;;;;;;35.63;17.00;;;5.50;99.90;;;;;;5096062;28;20265;-77
2020/12/29 08:39:07;;;;;;;32.63;16.47;;;5.50;99.90;;;;;;5074960;28;20246;-77
2020/12/29 08:41:44;;;;;;;32.70;15.47;;;5.50;99.90;;;;;;5094098;28;20240;-77
2020/12/29 08:44:11;;;;;;;28.47;14.93;;;5.50;99.90;;;;;;5076732;28;20189;-78
2020/12/29 08:46:36;;;;;;;26.83;14.00;;;5.60;99.90;;;;;;5091524;28;20179;-78
2020/12/29 08:49:06;;;;;;;30.40;14.43;;;5.60;99.90;;;;;;5110046;27;20523;-77
2020/12/29 08:51:43;;;;;;;30.10;13.67;;;5.60;99.90;;;;;;5112026;27;20864;-77
2020/12/29 08:54:16;;;;;;;27.67;13.37;;;5.70;99.90;;;;;;5076571;28;20756;-77
2020/12/29 08:56:43;;;;;;;26.07;13.30;;;5.70;99.90;;;;;;5108840;27;20186;-78
2020/12/29 08:59:19;;;;;;;24.77;12.87;;;5.70;99.90;;;;;;5091615;28;20270;-78
2020/12/29 09:01:56;;;;;;;30.37;13.43;;;5.90;99.90;;;;;;5077832;28;20200;-78
2020/12/29 09:04:42;;;;;;;30.13;12.40;;;5.90;99.90;;;;;;5110769;27;20192;-79
2020/12/29 09:07:14;;;;;;;25.67;12.87;;;5.90;99.90;;;;;;5071785;28;20233;-78
2020/12/29 09:09:52;;;;;;;30.53;13.50;;;6.00;99.90;;;;;;5074806;28;20187;-78
2020/12/29 09:12:28;;;;;;;26.43;12.87;;;6.10;99.90;;;;;;5066608;28;20187;-78
2020/12/29 09:15:00;;;;;;;24.30;12.70;;;6.20;99.90;;;;;;5094381;28;20552;-77
2020/12/29 09:17:28;;;;;;;30.67;14.00;;;6.20;99.90;;;;;;5073372;28;20535;-77
2020/12/29 09:20:09;;;;;;;25.57;13.87;;;6.20;99.90;;;;;;5077740;28;20203;-78
2020/12/29 09:23:03;;;;;;;26.03;13.93;;;6.20;99.90;;;;;;5075186;28;20556;-79
2020/12/29 09:25:43;;;;;;;27.90;13.57;;;6.20;99.90;;;;;;5073550;28;20184;-78
2020/12/29 09:28:08;;;;;;;25.77;13.27;;;6.10;99.90;;;;;;5074961;28;20200;-79
2020/12/29 09:30:34;;;;;;;30.33;14.20;;;6.10;99.90;;;;;;5090137;28;20223;-78
2020/12/29 09:33:00;;;;;;;29.07;14.10;;;6.20;99.90;;;;;;5074518;28;20179;-80
2020/12/29 09:35:26;;;;;;;25.97;14.10;;;6.30;99.90;;;;;;5072368;28;20892;-78
2020/12/29 09:37:57;;;;;;;28.50;14.93;;;6.30;99.90;;;;;;5092394;28;20555;-78
2020/12/29 09:40:24;;;;;;;28.57;14.70;;;6.50;99.90;;;;;;5071061;28;20204;-78
2020/12/29 09:42:50;;;;;;;28.27;14.67;;;6.40;99.90;;;;;;5076696;28;20263;-78
2020/12/29 09:45:20;;;;;;;29.73;14.33;;;6.30;99.90;;;;;;5092133;28;20178;-78
2020/12/29 09:47:46;;;;;;;27.13;15.13;;;6.30;99.90;;;;;;5086810;28;20186;-79
2020/12/29 09:50:12;;;;;;;30.23;14.73;;;6.30;99.90;;;;;;5077048;28;20273;-79
2020/12/29 09:52:38;;;;;;;32.87;16.07;;;6.20;99.90;;;;;;5088051;28;20575;-78
2020/12/29 09:55:05;;;;;;;32.23;15.57;;;6.20;99.90;;;;;;5090375;28;20200;-77
2020/12/29 09:57:30;;;;;;;33.47;16.33;;;6.30;99.90;;;;;;5075394;28;20206;-77
2020/12/29 09:59:56;;;;;;;38.07;17.07;;;6.40;99.90;;;;;;5090613;28;20944;-78
2020/12/29 10:02:22;;;;;;;31.63;16.33;;;6.60;99.90;;;;;;5075798;28;20867;-78
2020/12/29 10:04:48;;;;;;;29.50;15.87;;;6.70;99.90;;;;;;5092946;28;20188;-77
2020/12/29 10:07:14;;;;;;;31.80;15.93;;;6.80;99.90;;;;;;5092067;28;20186;-78
2020/12/29 10:09:39;;;;;;;32.37;16.13;;;6.80;99.90;;;;;;5090873;28;20215;-77
2020/12/29 10:12:05;;;;;;;31.80;16.53;;;6.90;99.90;;;;;;5080021;28;20701;-77
2020/12/29 10:14:34;;;;;;;31.73;16.63;;;7.00;99.90;;;;;;5076937;28;20226;-78
2020/12/29 10:17:00;;;;;;;32.47;16.20;;;7.10;99.90;;;;;;5076222;28;20224;-78
2020/12/29 10:19:25;;;;;;;30.83;16.27;;;7.20;99.90;;;;;;5092796;28;20632;-78
2020/12/29 10:21:52;;;;;;;30.37;15.30;;;7.10;99.90;;;;;;5093106;28;20166;-77
2020/12/29 10:24:19;;;;;;;27.93;15.50;;;7.20;99.90;;;;;;5079447;28;20184;-78
2020/12/29 10:26:48;;;;;;;26.70;14.60;;;7.10;99.90;;;;;;5040327;28;20190;-78
2020/12/29 10:29:13;;;;;;;30.80;15.10;;;7.10;99.90;;;;;;5072705;28;20233;-78
2020/12/29 10:31:39;;;;;;;29.37;15.10;;;7.20;99.90;;;;;;5056250;28;20193;-78
2020/12/29 10:34:04;;;;;;;29.50;14.87;;;7.30;99.90;;;;;;5054613;28;20203;-78
2020/12/29 10:36:36;;;;;;;29.00;15.37;;;7.30;99.90;;;;;;5070469;28;20217;-78
2020/12/29 10:39:04;;;;;;;28.10;16.17;;;7.40;99.90;;;;;;5056428;28;20180;-79
2020/12/29 10:41:31;;;;;;;33.33;16.13;;;7.50;99.90;;;;;;5056984;28;20210;-79
2020/12/29 10:43:57;;;;;;;29.70;14.87;;;7.60;99.90;;;;;;5074664;28;20193;-78
2020/12/29 10:46:23;;;;;;;29.67;15.27;;;7.70;99.90;;;;;;5050360;28;20175;-78
2020/12/29 10:48:50;;;;;;;30.30;15.17;;;7.70;99.90;;;;;;5073633;28;20187;-79
2020/12/29 10:51:19;;;;;;;31.07;15.57;;;7.80;99.90;;;;;;5073081;28;20189;-78
2020/12/29 10:53:46;;;;;;;29.27;15.43;;;7.90;99.90;;;;;;5069729;28;20245;-78
2020/12/29 10:56:12;;;;;;;31.70;15.43;;;7.90;99.90;;;;;;5055936;28;20194;-78
2020/12/29 10:58:39;;;;;;;27.13;15.03;;;7.90;99.90;;;;;;5075113;28;20206;-78
2020/12/29 11:01:05;;;;;;;30.73;16.13;;;7.90;99.90;;;;;;5057338;28;20288;-78
2020/12/29 11:03:31;;;;;;;27.60;15.87;;;8.00;99.90;;;;;;5055010;28;20810;-78
2020/12/29 11:05:57;;;;;;;29.20;15.47;;;8.00;99.90;;;;;;5090260;28;20552;-79
2020/12/29 11:08:27;;;;;;;26.73;14.97;;;8.20;99.90;;;;;;5056857;28;20237;-79
2020/12/29 11:10:54;;;;;;;32.23;14.67;;;8.20;99.90;;;;;;5051500;28;20192;-78
2020/12/29 11:13:20;;;;;;;31.73;14.17;;;8.20;99.90;;;;;;5086579;28;20187;-79
2020/12/29 11:15:48;;;;;;;25.87;14.30;;;8.10;99.90;;;;;;5089580;28;20317;-79
2020/12/29 11:18:14;;;;;;;25.63;13.97;;;8.20;99.90;;;;;;5049276;28;20184;-79
2020/12/29 11:20:40;;;;;;;27.83;14.73;;;8.10;99.90;;;;;;5054805;28;20206;-78
2020/12/29 11:23:05;;;;;;;29.40;15.10;;;7.80;99.90;;;;;;5072001;28;20171;-78
2020/12/29 11:25:31;;;;;;;31.07;15.60;;;7.90;99.90;;;;;;5056135;28;20199;-78
2020/12/29 11:27:57;;;;;;;29.23;15.33;;;7.70;99.90;;;;;;5054332;28;20261;-78
2020/12/29 11:30:22;;;;;;;30.50;15.43;;;7.70;99.90;;;;;;5052645;28;20247;-78
2020/12/29 11:32:49;;;;;;;32.70;15.97;;;7.60;99.90;;;;;;5058783;28;20238;-79
2020/12/29 11:35:14;;;;;;;30.67;15.73;;;7.80;99.90;;;;;;5054179;28;20225;-78
2020/12/29 11:37:40;;;;;;;26.93;14.63;;;8.00;99.90;;;;;;5073075;28;20190;-78
2020/12/29 11:40:06;;;;;;;27.20;14.17;;;8.10;99.90;;;;;;5072339;28;20213;-78
2020/12/29 11:42:31;;;;;;;31.37;14.57;;;8.10;99.90;;;;;;5082586;28;20184;-78
2020/12/29 11:44:57;;;;;;;33.23;15.63;;;8.20;99.90;;;;;;5089893;28;20186;-78
2020/12/29 11:47:22;;;;;;;27.73;15.27;;;8.30;99.90;;;;;;5053167;28;20265;-79
2020/12/29 11:49:48;;;;;;;29.57;15.50;;;8.40;99.90;;;;;;5053545;28;20210;-79
2020/12/29 11:52:14;;;;;;;27.57;14.87;;;8.40;99.90;;;;;;5039704;28;20210;-79
2020/12/29 11:54:39;;;;;;;25.17;14.10;;;8.40;99.90;;;;;;5070293;28;20536;-78
2020/12/29 11:57:06;;;;;;;25.63;13.80;;;8.40;99.90;;;;;;5070840;28;20198;-79
2020/12/29 11:59:32;;;;;;;25.53;13.80;;;8.30;99.90;;;;;;5054694;28;20210;-78
2020/12/29 12:01:57;;;;;;;24.73;13.07;;;8.30;99.90;;;;;;5044980;28;20203;-78
2020/12/29 12:04:23;;;;;;;23.23;13.03;;;8.10;99.90;;;;;;5050182;28;20184;-78
2020/12/29 12:06:49;;;;;;;22.80;13.03;;;8.10;99.90;;;;;;5066302;28;20172;-77
2020/12/29 12:09:15;;;;;;;27.33;13.83;;;8.10;99.90;;;;;;5048401;28;20202;-76
2020/12/29 12:11:41;;;;;;;25.37;11.80;;;8.10;99.90;;;;;;5066658;28;20293;-76
2020/12/29 12:14:07;;;;;;;21.47;11.40;;;8.30;99.90;;;;;;5066598;28;20259;-76
2020/12/29 12:16:39;;;;;;;19.17;10.60;;;8.40;99.90;;;;;;5049145;28;20287;-76
2020/12/29 12:19:06;;;;;;;20.30;10.43;;;8.30;99.90;;;;;;5066248;28;20214;-76
2020/12/29 12:21:33;;;;;;;17.83;9.80;;;8.30;99.90;;;;;;5048813;28;20294;-75
2020/12/29 12:23:59;;;;;;;20.73;9.27;;;8.40;99.90;;;;;;5051573;28;20196;-76
2020/12/29 12:26:25;;;;;;;20.50;9.70;;;8.60;99.90;;;;;;5069567;28;20180;-76
2020/12/29 12:28:51;;;;;;;18.00;9.70;;;8.50;99.90;;;;;;5064623;28;20263;-76
2020/12/29 12:31:16;;;;;;;16.53;9.83;;;8.50;99.90;;;;;;5068533;28;20271;-77
2020/12/29 12:33:43;;;;;;;23.20;9.63;;;8.50;99.90;;;;;;5067794;28;20617;-77
2020/12/29 12:36:10;;;;;;;20.57;10.27;;;8.50;99.90;;;;;;5052300;28;20179;-77
2020/12/29 12:38:36;;;;;;;20.57;10.67;;;8.60;99.90;;;;;;5082370;28;20791;-76
2020/12/29 12:41:06;;;;;;;20.37;9.97;;;8.70;99.90;;;;;;5051029;28;20210;-76